^^
Saratoga-Weather Station Historical Data
Daily Summary for April 12, 2020 Units:  Both    English   Metric
Daily Weekly Monthly Yearly Custom
  High: Low: Average:
Temperature: 57.6 °F /  14.2 °C 36.1 °F /  2.3 °C 46.8 °F /  8.2 °C
Dew Point: 39.7 °F /  4.3 °C 31.3 °F /  -0.4 °C 35.8 °F /  2.1 °C
Humidity: 95% 45% 68%
Wind Speed: 8.1mph /  13km/h - 1.6mph /  2.5km/h
Wind Gust: 9mph /  14.5km/h - -
Wind- - South
Pressure: 30.1 in /  1019.3 hPa 29.9 in /  1013.2 hPa -
Precipitation: 0.01 in /  0.2 mm    
Historical Graphs
 
 
Tabular Data for April 12, 2020
Time Temperature Dew Point Pressure Wind Wind Speed Wind Gust Humidity Rainfall Rate (Hourly) solar
00:02 39.7 °F /  4.3 °C 38.5 °F /  3.6 °C 30in /  1015.2hPa Calm     95% 0in /  0.0mm 0 W/m2
00:07 39.7 °F /  4.3 °C 38.5 °F /  3.6 °C 30in /  1015.2hPa Calm     95% 0in /  0.0mm 0 W/m2
00:12 39.6 °F /  4.2 °C 38.3 °F /  3.5 °C 30in /  1015.2hPa Calm     95% 0in /  0.0mm 0 W/m2
00:17 39.4 °F /  4.1 °C 38.1 °F /  3.4 °C 30in /  1015.6hPa Calm     95% 0in /  0.0mm 0 W/m2
00:22 39.4 °F /  4.1 °C 38.1 °F /  3.4 °C 30in /  1015.6hPa Calm     95% 0in /  0.0mm 0 W/m2
00:27 39 °F /  3.9 °C 37.8 °F /  3.2 °C 30in /  1015.6hPa Calm     95% 0in /  0.0mm 0 W/m2
00:32 38.8 °F /  3.8 °C 37.6 °F /  3.1 °C 30in /  1015.6hPa WSW 0.9mph /  1.4km/h 2mph /  3.2km/h 95% 0in /  0.0mm 0 W/m2
00:37 38.7 °F /  3.7 °C 37.4 °F /  3 °C 30in /  1015.9hPa WSW 0.9mph /  1.4km/h 2mph /  3.2km/h 95% 0in /  0.0mm 0 W/m2
00:42 38.5 °F /  3.6 °C 37.2 °F /  2.9 °C 30in /  1015.9hPa Calm   2mph /  3.2km/h 95% 0in /  0.0mm 0 W/m2
00:47 38.5 °F /  3.6 °C 37.2 °F /  2.9 °C 30in /  1015.9hPa Calm   2mph /  3.2km/h 95% 0in /  0.0mm 0 W/m2
00:52 38.1 °F /  3.4 °C 36.9 °F /  2.7 °C 30in /  1015.9hPa WSW 2mph /  3.2km/h 2mph /  3.2km/h 95% 0in /  0.0mm 0 W/m2
00:57 37.9 °F /  3.3 °C 36.7 °F /  2.6 °C 30in /  1015.9hPa Calm   1mph /  1.6km/h 95% 0in /  0.0mm 0 W/m2
01:03 37.9 °F /  3.3 °C 36.7 °F /  2.6 °C 30in /  1015.9hPa Calm     95% 0in /  0.0mm 0 W/m2
01:08 37.9 °F /  3.3 °C 36.7 °F /  2.6 °C 30in /  1016.3hPa WSW 0.9mph /  1.4km/h 1mph /  1.6km/h 95% 0in /  0.0mm 0 W/m2
01:13 37.8 °F /  3.2 °C 36.5 °F /  2.5 °C 30in /  1016.3hPa WSW 0.9mph /  1.4km/h 3mph /  4.8km/h 95% 0in /  0.0mm 0 W/m2
01:18 37.6 °F /  3.1 °C 36.3 °F /  2.4 °C 30in /  1016.3hPa WSW 2mph /  3.2km/h 2mph /  3.2km/h 95% 0in /  0.0mm 0 W/m2
01:23 37.6 °F /  3.1 °C 36.3 °F /  2.4 °C 30in /  1016.3hPa WSW 2mph /  3.2km/h 3mph /  4.8km/h 95% 0in /  0.0mm 0 W/m2
01:28 37.4 °F /  3 °C 36.1 °F /  2.3 °C 30in /  1016.3hPa SSW 0.9mph /  1.4km/h 3mph /  4.8km/h 95% 0in /  0.0mm 0 W/m2
01:33 37.2 °F /  2.9 °C 36 °F /  2.2 °C 30in /  1016.3hPa SSW 0.9mph /  1.4km/h 1mph /  1.6km/h 95% 0in /  0.0mm 0 W/m2
01:38 37 °F /  2.8 °C 35.8 °F /  2.1 °C 30in /  1016.6hPa Calm   3mph /  4.8km/h 95% 0in /  0.0mm 0 W/m2
01:43 37 °F /  2.8 °C 35.8 °F /  2.1 °C 30in /  1016.6hPa SSW 0.9mph /  1.4km/h 1mph /  1.6km/h 95% 0in /  0.0mm 0 W/m2
01:48 37 °F /  2.8 °C 35.8 °F /  2.1 °C 30in /  1016.6hPa Calm   1mph /  1.6km/h 95% 0in /  0.0mm 0 W/m2
01:53 36.9 °F /  2.7 °C 35.6 °F /  2 °C 30in /  1016.6hPa SSW 0.9mph /  1.4km/h 1mph /  1.6km/h 95% 0in /  0.0mm 0 W/m2
01:58 37 °F /  2.8 °C 35.8 °F /  2.1 °C 30in /  1016.6hPa SSW 2mph /  3.2km/h 2mph /  3.2km/h 95% 0.01in /  0.2mm 0 W/m2
02:03 36.9 °F /  2.7 °C 35.6 °F /  2 °C 30in /  1016.6hPa SSW 2mph /  3.2km/h 2mph /  3.2km/h 95% 0.01in /  0.2mm 0 W/m2
02:08 36.9 °F /  2.7 °C 35.6 °F /  2 °C 30in /  1016.6hPa SSW 0.9mph /  1.4km/h 2mph /  3.2km/h 95% 0.01in /  0.2mm 0 W/m2
02:13 36.7 °F /  2.6 °C 35.4 °F /  1.9 °C 30in /  1016.6hPa SSW 0.9mph /  1.4km/h 2mph /  3.2km/h 95% 0.01in /  0.2mm 0 W/m2
02:18 36.7 °F /  2.6 °C 35.4 °F /  1.9 °C 30in /  1016.9hPa SSW 0.9mph /  1.4km/h 2mph /  3.2km/h 95% 0.01in /  0.2mm 0 W/m2
02:23 36.5 °F /  2.5 °C 35.2 °F /  1.8 °C 30in /  1016.6hPa SSW 0.9mph /  1.4km/h 2mph /  3.2km/h 95% 0.01in /  0.2mm 0 W/m2
02:28 36.3 °F /  2.4 °C 35.1 °F /  1.7 °C 30in /  1016.9hPa WNW 2.9mph /  4.7km/h 3mph /  4.8km/h 95% 0.01in /  0.2mm 0 W/m2
02:33 36.7 °F /  2.6 °C 35.4 °F /  1.9 °C 30in /  1016.9hPa NNE 0.9mph /  1.4km/h 4mph /  6.4km/h 95% 0.01in /  0.2mm 0 W/m2
02:39 37 °F /  2.8 °C 35.4 °F /  1.9 °C 30in /  1016.9hPa WSW 0.9mph /  1.4km/h 3mph /  4.8km/h 94% 0.01in /  0.2mm 0 W/m2
02:44 37.6 °F /  3.1 °C 35.8 °F /  2.1 °C 30in /  1016.9hPa Calm   1mph /  1.6km/h 93% 0.01in /  0.2mm 0 W/m2
02:49 37.6 °F /  3.1 °C 35.4 °F /  1.9 °C 30in /  1016.9hPa West 2mph /  3.2km/h 4mph /  6.4km/h 92% 0.01in /  0.2mm 0 W/m2
02:54 37.8 °F /  3.2 °C 35.4 °F /  1.9 °C 30in /  1016.9hPa West 2.9mph /  4.7km/h 3mph /  4.8km/h 91% 0.01in /  0.2mm 0 W/m2
02:59 37.8 °F /  3.2 °C 35.1 °F /  1.7 °C 30in /  1016.9hPa SW 2mph /  3.2km/h 4mph /  6.4km/h 90% 0in /  0.0mm 0 W/m2
03:04 37.8 °F /  3.2 °C 34.9 °F /  1.6 °C 30in /  1016.9hPa Calm   1mph /  1.6km/h 89% 0in /  0.0mm 0 W/m2
03:09 37.9 °F /  3.3 °C 34.7 °F /  1.5 °C 30in /  1016.9hPa NW 0.9mph /  1.4km/h 1mph /  1.6km/h 88% 0in /  0.0mm 0 W/m2
03:14 37.9 °F /  3.3 °C 34.3 °F /  1.3 °C 30in /  1016.9hPa West 0.9mph /  1.4km/h 3mph /  4.8km/h 87% 0in /  0.0mm 0 W/m2
03:19 37.8 °F /  3.2 °C 34 °F /  1.1 °C 30in /  1017.3hPa West 4mph /  6.4km/h 4mph /  6.4km/h 86% 0in /  0.0mm 0 W/m2
03:24 37.9 °F /  3.3 °C 33.8 °F /  1 °C 30in /  1017.3hPa NNW 4mph /  6.4km/h 6mph /  9.7km/h 85% 0in /  0.0mm 0 W/m2
03:29 38.1 °F /  3.4 °C 33.4 °F /  0.8 °C 30in /  1017.3hPa West 2mph /  3.2km/h 3mph /  4.8km/h 83% 0in /  0.0mm 0 W/m2
03:34 38.1 °F /  3.4 °C 33.1 °F /  0.6 °C 30in /  1017.3hPa West 2.9mph /  4.7km/h 6mph /  9.7km/h 82% 0in /  0.0mm 0 W/m2
03:39 38.1 °F /  3.4 °C 33.1 °F /  0.6 °C 30in /  1017.3hPa West 0.9mph /  1.4km/h 3mph /  4.8km/h 82% 0in /  0.0mm 0 W/m2
03:44 38.1 °F /  3.4 °C 33.1 °F /  0.6 °C 30in /  1017.3hPa WNW 2.9mph /  4.7km/h 5mph /  8km/h 82% 0in /  0.0mm 0 W/m2
03:49 38.3 °F /  3.5 °C 32.7 °F /  0.4 °C 30in /  1017.3hPa WNW 2.9mph /  4.7km/h 4mph /  6.4km/h 80% 0in /  0.0mm 0 W/m2
03:54 38.3 °F /  3.5 °C 32.7 °F /  0.4 °C 30in /  1017.3hPa WSW 2.9mph /  4.7km/h 3mph /  4.8km/h 80% 0in /  0.0mm 0 W/m2
03:59 38.1 °F /  3.4 °C 32.5 °F /  0.3 °C 30in /  1017.3hPa NNW 2mph /  3.2km/h 4mph /  6.4km/h 80% 0in /  0.0mm 0 W/m2
04:04 38.1 °F /  3.4 °C 32.5 °F /  0.3 °C 30in /  1017.3hPa West 2.9mph /  4.7km/h 3mph /  4.8km/h 80% 0in /  0.0mm 0 W/m2
04:10 37.9 °F /  3.3 °C 32 °F /  0 °C 30.1in /  1017.6hPa West 2.9mph /  4.7km/h 4mph /  6.4km/h 79% 0in /  0.0mm 0 W/m2
04:15 37.9 °F /  3.3 °C 32 °F /  0 °C 30.1in /  1017.6hPa NW 0.9mph /  1.4km/h 3mph /  4.8km/h 79% 0in /  0.0mm 0 W/m2
04:20 37.9 °F /  3.3 °C 32.4 °F /  0.2 °C 30.1in /  1017.6hPa WNW 0.9mph /  1.4km/h 4mph /  6.4km/h 80% 0in /  0.0mm 0 W/m2
04:25 37.8 °F /  3.2 °C 32.2 °F /  0.1 °C 30.1in /  1017.6hPa West 0.9mph /  1.4km/h 4mph /  6.4km/h 80% 0in /  0.0mm 0 W/m2
04:30 37.8 °F /  3.2 °C 32.2 °F /  0.1 °C 30.1in /  1017.6hPa NNW 0.9mph /  1.4km/h 3mph /  4.8km/h 80% 0in /  0.0mm 0 W/m2
04:35 37.9 °F /  3.3 °C 31.6 °F /  -0.2 °C 30.1in /  1017.6hPa WSW 2mph /  3.2km/h 3mph /  4.8km/h 78% 0in /  0.0mm 0 W/m2
04:40 37.9 °F /  3.3 °C 32 °F /  0 °C 30.1in /  1017.6hPa WNW 0.9mph /  1.4km/h 4mph /  6.4km/h 79% 0in /  0.0mm 0 W/m2
04:45 37.9 °F /  3.3 °C 31.6 °F /  -0.2 °C 30.1in /  1017.6hPa NW 0.9mph /  1.4km/h 7mph /  11.3km/h 78% 0in /  0.0mm 0 W/m2
04:50 37.9 °F /  3.3 °C 31.6 °F /  -0.2 °C 30.1in /  1017.6hPa West 2.9mph /  4.7km/h 3mph /  4.8km/h 78% 0in /  0.0mm 0 W/m2
04:55 37.8 °F /  3.2 °C 31.8 °F /  -0.1 °C 30.1in /  1017.6hPa West 2mph /  3.2km/h 3mph /  4.8km/h 79% 0in /  0.0mm 0 W/m2
05:00 37.8 °F /  3.2 °C 31.8 °F /  -0.1 °C 30.1in /  1018.0hPa WNW 0.9mph /  1.4km/h 3mph /  4.8km/h 79% 0in /  0.0mm 0 W/m2
05:05 37.6 °F /  3.1 °C 32 °F /  0 °C 30.1in /  1018.0hPa WNW 2.9mph /  4.7km/h 5mph /  8km/h 80% 0in /  0.0mm 0 W/m2
05:10 37.4 °F /  3 °C 31.5 °F /  -0.3 °C 30.1in /  1018.0hPa NW 0.9mph /  1.4km/h 2mph /  3.2km/h 79% 0in /  0.0mm 0 W/m2
05:15 37.4 °F /  3 °C 31.5 °F /  -0.3 °C 30.1in /  1018.0hPa WNW 2mph /  3.2km/h 2mph /  3.2km/h 79% 0in /  0.0mm 0 W/m2
05:20 37.2 °F /  2.9 °C 31.3 °F /  -0.4 °C 30.1in /  1018.0hPa WNW 2mph /  3.2km/h 4mph /  6.4km/h 79% 0in /  0.0mm 0 W/m2
05:25 37.4 °F /  3 °C 31.5 °F /  -0.3 °C 30.1in /  1018.0hPa WSW 2mph /  3.2km/h 3mph /  4.8km/h 79% 0in /  0.0mm 0 W/m2
05:30 37.2 °F /  2.9 °C 31.6 °F /  -0.2 °C 30.1in /  1018.0hPa WSW 0.9mph /  1.4km/h 3mph /  4.8km/h 80% 0in /  0.0mm 0 W/m2
05:35 37.2 °F /  2.9 °C 31.3 °F /  -0.4 °C 30.1in /  1018.0hPa NW 2mph /  3.2km/h 3mph /  4.8km/h 79% 0in /  0.0mm 0 W/m2
05:40 37.2 °F /  2.9 °C 31.3 °F /  -0.4 °C 30.1in /  1018.0hPa West 2mph /  3.2km/h 3mph /  4.8km/h 79% 0in /  0.0mm 0 W/m2
05:45 37.2 °F /  2.9 °C 31.3 °F /  -0.4 °C 30.1in /  1018.3hPa Calm   2mph /  3.2km/h 79% 0in /  0.0mm 0 W/m2
05:50 37 °F /  2.8 °C 31.8 °F /  -0.1 °C 30.1in /  1018.3hPa West 0.9mph /  1.4km/h 1mph /  1.6km/h 81% 0in /  0.0mm 0 W/m2
05:55 36.9 °F /  2.7 °C 31.8 °F /  -0.1 °C 30.1in /  1018.3hPa South 0.9mph /  1.4km/h 3mph /  4.8km/h 82% 0in /  0.0mm 0 W/m2
06:00 36.7 °F /  2.6 °C 32 °F /  0 °C 30.1in /  1018.3hPa SSE 4mph /  6.4km/h 4mph /  6.4km/h 83% 0in /  0.0mm 5 W/m2
06:05 36.3 °F /  2.4 °C 32 °F /  0 °C 30.1in /  1018.3hPa SSE 0.9mph /  1.4km/h 2mph /  3.2km/h 84% 0in /  0.0mm 7 W/m2
06:10 36.3 °F /  2.4 °C 32.2 °F /  0.1 °C 30.1in /  1018.3hPa SW 0.9mph /  1.4km/h 4mph /  6.4km/h 85% 0in /  0.0mm 11 W/m2
06:15 36.1 °F /  2.3 °C 32.4 °F /  0.2 °C 30.1in /  1018.3hPa SW 0.9mph /  1.4km/h 2mph /  3.2km/h 86% 0in /  0.0mm 12 W/m2
06:20 36.1 °F /  2.3 °C 32 °F /  0 °C 30.1in /  1018.3hPa ENE 2mph /  3.2km/h 4mph /  6.4km/h 85% 0in /  0.0mm 14 W/m2
06:25 36.1 °F /  2.3 °C 31.5 °F /  -0.3 °C 30.1in /  1018.6hPa SE 0.9mph /  1.4km/h 2mph /  3.2km/h 83% 0in /  0.0mm 16 W/m2
06:30 36.3 °F /  2.4 °C 32 °F /  0 °C 30.1in /  1018.6hPa ENE 0.9mph /  1.4km/h 1mph /  1.6km/h 84% 0in /  0.0mm 19 W/m2
06:35 36.3 °F /  2.4 °C 32 °F /  0 °C 30.1in /  1018.6hPa West 0.9mph /  1.4km/h 2mph /  3.2km/h 84% 0in /  0.0mm 21 W/m2
06:40 36.5 °F /  2.5 °C 31.8 °F /  -0.1 °C 30.1in /  1018.6hPa Calm   1mph /  1.6km/h 83% 0in /  0.0mm 23 W/m2
06:45 36.7 °F /  2.6 °C 32 °F /  0 °C 30.1in /  1018.6hPa Calm   1mph /  1.6km/h 83% 0in /  0.0mm 25 W/m2
06:50 36.7 °F /  2.6 °C 32.4 °F /  0.2 °C 30.1in /  1018.6hPa SE 0.9mph /  1.4km/h 1mph /  1.6km/h 84% 0in /  0.0mm 25 W/m2
06:55 36.7 °F /  2.6 °C 32 °F /  0 °C 30.1in /  1018.6hPa East 0.9mph /  1.4km/h 2mph /  3.2km/h 83% 0in /  0.0mm 26 W/m2
07:00 36.9 °F /  2.7 °C 31.6 °F /  -0.2 °C 30.1in /  1018.6hPa NNE 0.9mph /  1.4km/h 4mph /  6.4km/h 81% 0in /  0.0mm 28 W/m2
07:05 37.2 °F /  2.9 °C 31.6 °F /  -0.2 °C 30.1in /  1019.0hPa East 0.9mph /  1.4km/h 3mph /  4.8km/h 80% 0in /  0.0mm 30 W/m2
07:10 37.4 °F /  3 °C 31.5 °F /  -0.3 °C 30.1in /  1019.0hPa East 2mph /  3.2km/h 6mph /  9.7km/h 79% 0in /  0.0mm 30 W/m2
07:15 37.6 °F /  3.1 °C 31.6 °F /  -0.2 °C 30.1in /  1019.0hPa NNW 0.9mph /  1.4km/h 3mph /  4.8km/h 79% 0in /  0.0mm 32 W/m2
07:20 37.8 °F /  3.2 °C 31.8 °F /  -0.1 °C 30.1in /  1019.0hPa ESE 2mph /  3.2km/h 6mph /  9.7km/h 79% 0in /  0.0mm 33 W/m2
07:25 37.9 °F /  3.3 °C 31.6 °F /  -0.2 °C 30.1in /  1019.0hPa NW 2mph /  3.2km/h 4mph /  6.4km/h 78% 0in /  0.0mm 33 W/m2
07:30 38.1 °F /  3.4 °C 31.8 °F /  -0.1 °C 30.1in /  1019.0hPa NNW 4.9mph /  7.9km/h 5mph /  8km/h 78% 0in /  0.0mm 35 W/m2
07:35 38.5 °F /  3.6 °C 32.2 °F /  0.1 °C 30.1in /  1019.0hPa Calm   1mph /  1.6km/h 78% 0in /  0.0mm 37 W/m2
07:40 38.7 °F /  3.7 °C 32.4 °F /  0.2 °C 30.1in /  1019.0hPa NE 2mph /  3.2km/h 3mph /  4.8km/h 78% 0in /  0.0mm 39 W/m2
07:45 38.8 °F /  3.8 °C 32.5 °F /  0.3 °C 30.1in /  1019.0hPa WSW 2.9mph /  4.7km/h 4mph /  6.4km/h 78% 0in /  0.0mm 39 W/m2
07:50 39 °F /  3.9 °C 32.4 °F /  0.2 °C 30.1in /  1019.0hPa NNW 0.9mph /  1.4km/h 2mph /  3.2km/h 77% 0in /  0.0mm 141 W/m2
07:55 39.4 °F /  4.1 °C 32.5 °F /  0.3 °C 30.1in /  1019.0hPa WNW 0.9mph /  1.4km/h 4mph /  6.4km/h 76% 0in /  0.0mm 253 W/m2
08:00 39.7 °F /  4.3 °C 33.1 °F /  0.6 °C 30.1in /  1019.3hPa NW 0.9mph /  1.4km/h 3mph /  4.8km/h 77% 0in /  0.0mm 265 W/m2
08:05 40.3 °F /  4.6 °C 33.3 °F /  0.7 °C 30.1in /  1019.3hPa Calm   3mph /  4.8km/h 76% 0in /  0.0mm 279 W/m2
08:10 40.6 °F /  4.8 °C 33.6 °F /  0.9 °C 30.1in /  1019.3hPa NW 0.9mph /  1.4km/h 3mph /  4.8km/h 76% 0in /  0.0mm 295 W/m2
08:15 41 °F /  5 °C 33.6 °F /  0.9 °C 30.1in /  1019.3hPa NNW 0.9mph /  1.4km/h 3mph /  4.8km/h 75% 0in /  0.0mm 309 W/m2
08:20 41.4 °F /  5.2 °C 33.6 °F /  0.9 °C 30.1in /  1019.3hPa NW 0.9mph /  1.4km/h 5mph /  8km/h 74% 0in /  0.0mm 322 W/m2
08:25 41.5 °F /  5.3 °C 33.8 °F /  1 °C 30.1in /  1019.3hPa WNW 2mph /  3.2km/h 4mph /  6.4km/h 74% 0in /  0.0mm 336 W/m2
08:30 41.7 °F /  5.4 °C 34.7 °F /  1.5 °C 30.1in /  1019.3hPa Calm   2mph /  3.2km/h 76% 0in /  0.0mm 352 W/m2
08:35 42.1 °F /  5.6 °C 34.3 °F /  1.3 °C 30.1in /  1019.3hPa NNW 0.9mph /  1.4km/h 4mph /  6.4km/h 74% 0in /  0.0mm 366 W/m2
08:40 42.4 °F /  5.8 °C 34 °F /  1.1 °C 30.1in /  1019.3hPa NNE 0.9mph /  1.4km/h 2mph /  3.2km/h 72% 0in /  0.0mm 380 W/m2
08:45 43 °F /  6.1 °C 34.5 °F /  1.4 °C 30.1in /  1019.3hPa NNE 0.9mph /  1.4km/h 3mph /  4.8km/h 72% 0in /  0.0mm 392 W/m2
08:50 43.3 °F /  6.3 °C 34.5 °F /  1.4 °C 30.1in /  1019.3hPa Calm   6mph /  9.7km/h 71% 0in /  0.0mm 404 W/m2
08:55 43.7 °F /  6.5 °C 34.9 °F /  1.6 °C 30.1in /  1019.3hPa SSE 2mph /  3.2km/h 4mph /  6.4km/h 71% 0in /  0.0mm 420 W/m2
09:00 43.9 °F /  6.6 °C 34.3 °F /  1.3 °C 30.1in /  1019.3hPa East 2mph /  3.2km/h 3mph /  4.8km/h 69% 0in /  0.0mm 432 W/m2
09:05 44.2 °F /  6.8 °C 35.1 °F /  1.7 °C 30.1in /  1019.3hPa North 2mph /  3.2km/h 3mph /  4.8km/h 70% 0in /  0.0mm 446 W/m2
09:10 44.4 °F /  6.9 °C 34.9 °F /  1.6 °C 30.1in /  1019.3hPa ENE 0.9mph /  1.4km/h 2mph /  3.2km/h 69% 0in /  0.0mm 459 W/m2
09:15 44.8 °F /  7.1 °C 34.9 °F /  1.6 °C 30.1in /  1019.3hPa ESE 2.9mph /  4.7km/h 8mph /  12.9km/h 68% 0in /  0.0mm 471 W/m2
09:20 45 °F /  7.2 °C 35.1 °F /  1.7 °C 30.1in /  1019.3hPa ESE 2.9mph /  4.7km/h 4mph /  6.4km/h 68% 0in /  0.0mm 485 W/m2
09:25 45.1 °F /  7.3 °C 35.2 °F /  1.8 °C 30.1in /  1019.3hPa ENE 2.9mph /  4.7km/h 8mph /  12.9km/h 68% 0in /  0.0mm 497 W/m2
09:30 45.5 °F /  7.5 °C 36 °F /  2.2 °C 30.1in /  1019.3hPa NNW 4mph /  6.4km/h 5mph /  8km/h 69% 0in /  0.0mm 510 W/m2
09:36 45.9 °F /  7.7 °C 36 °F /  2.2 °C 30.1in /  1019.3hPa NNE 2.9mph /  4.7km/h 5mph /  8km/h 68% 0in /  0.0mm 524 W/m2
09:41 46.2 °F /  7.9 °C 36 °F /  2.2 °C 30.1in /  1019.3hPa ENE 2.9mph /  4.7km/h 4mph /  6.4km/h 67% 0in /  0.0mm 533 W/m2
09:46 46.2 °F /  7.9 °C 36.3 °F /  2.4 °C 30.1in /  1019.3hPa ENE 0.9mph /  1.4km/h 4mph /  6.4km/h 68% 0in /  0.0mm 547 W/m2
09:51 46.4 °F /  8 °C 36.5 °F /  2.5 °C 30.1in /  1019.3hPa ENE 4mph /  6.4km/h 6mph /  9.7km/h 68% 0in /  0.0mm 559 W/m2
09:56 46.8 °F /  8.2 °C 36.7 °F /  2.6 °C 30.1in /  1019.0hPa NE 2mph /  3.2km/h 3mph /  4.8km/h 68% 0in /  0.0mm 571 W/m2
10:01 46.9 °F /  8.3 °C 36.9 °F /  2.7 °C 30.1in /  1019.0hPa ESE 0.9mph /  1.4km/h 2mph /  3.2km/h 68% 0in /  0.0mm 584 W/m2
10:06 47.5 °F /  8.6 °C 37 °F /  2.8 °C 30.1in /  1019.0hPa NE 0.9mph /  1.4km/h 3mph /  4.8km/h 67% 0in /  0.0mm 594 W/m2
10:11 47.7 °F /  8.7 °C 37.2 °F /  2.9 °C 30.1in /  1019.0hPa ENE 4mph /  6.4km/h 5mph /  8km/h 67% 0in /  0.0mm 63 W/m2
10:16 47.8 °F /  8.8 °C 37 °F /  2.8 °C 30.1in /  1019.0hPa East 0.9mph /  1.4km/h 2mph /  3.2km/h 66% 0in /  0.0mm 118 W/m2
10:21 48.2 °F /  9 °C 37.8 °F /  3.2 °C 30.1in /  1019.0hPa NE 2.9mph /  4.7km/h 6mph /  9.7km/h 67% 0in /  0.0mm 613 W/m2
10:26 48.6 °F /  9.2 °C 37.8 °F /  3.2 °C 30.1in /  1019.0hPa ENE 4mph /  6.4km/h 4mph /  6.4km/h 66% 0in /  0.0mm 640 W/m2
10:31 48.6 °F /  9.2 °C 37.4 °F /  3 °C 30.1in /  1019.0hPa NE 2.9mph /  4.7km/h 4mph /  6.4km/h 65% 0in /  0.0mm 656 W/m2
10:36 48.2 °F /  9 °C 37.4 °F /  3 °C 30.1in /  1019.0hPa North 2mph /  3.2km/h 2mph /  3.2km/h 66% 0in /  0.0mm 663 W/m2
10:41 48.6 °F /  9.2 °C 37.4 °F /  3 °C 30.1in /  1019.0hPa ENE 4.9mph /  7.9km/h 6mph /  9.7km/h 65% 0in /  0.0mm 686 W/m2
10:46 48.9 °F /  9.4 °C 37.8 °F /  3.2 °C 30.1in /  1019.0hPa East 2.9mph /  4.7km/h 4mph /  6.4km/h 65% 0in /  0.0mm 712 W/m2
10:51 49.3 °F /  9.6 °C 36.9 °F /  2.7 °C 30.1in /  1019.0hPa SW 0.9mph /  1.4km/h 2mph /  3.2km/h 62% 0in /  0.0mm 754 W/m2
10:56 49.3 °F /  9.6 °C 37.6 °F /  3.1 °C 30.1in /  1019.0hPa ENE 4mph /  6.4km/h 6mph /  9.7km/h 64% 0in /  0.0mm 770 W/m2
11:01 49.5 °F /  9.7 °C 37 °F /  2.8 °C 30.1in /  1019.0hPa NE 4mph /  6.4km/h 8mph /  12.9km/h 62% 0in /  0.0mm 768 W/m2
11:06 49.8 °F /  9.9 °C 37.4 °F /  3 °C 30.1in /  1019.0hPa East 2mph /  3.2km/h 3mph /  4.8km/h 62% 0in /  0.0mm 172 W/m2
11:11 49.8 °F /  9.9 °C 36.9 °F /  2.7 °C 30.1in /  1018.6hPa Calm   7mph /  11.3km/h 61% 0in /  0.0mm 279 W/m2
11:16 49.8 °F /  9.9 °C 36.5 °F /  2.5 °C 30.1in /  1018.6hPa NW 0.9mph /  1.4km/h 2mph /  3.2km/h 60% 0in /  0.0mm 209 W/m2
11:21 49.6 °F /  9.8 °C 37.2 °F /  2.9 °C 30.1in /  1018.6hPa NNE 2mph /  3.2km/h 4mph /  6.4km/h 62% 0in /  0.0mm 858 W/m2
11:26 50 °F /  10 °C 36.7 °F /  2.6 °C 30.1in /  1018.6hPa East 2mph /  3.2km/h 3mph /  4.8km/h 60% 0in /  0.0mm 914 W/m2
11:31 51.1 °F /  10.6 °C 37.2 °F /  2.9 °C 30.1in /  1018.6hPa East 0.9mph /  1.4km/h 6mph /  9.7km/h 59% 0in /  0.0mm 990 W/m2
11:36 51.6 °F /  10.9 °C 36 °F /  2.2 °C 30.1in /  1018.6hPa North 4.9mph /  7.9km/h 8mph /  12.9km/h 55% 0in /  0.0mm 944 W/m2
11:41 51.6 °F /  10.9 °C 36 °F /  2.2 °C 30.1in /  1018.6hPa ENE 0.9mph /  1.4km/h 4mph /  6.4km/h 55% 0in /  0.0mm 817 W/m2
11:46 51.8 °F /  11 °C 35.2 °F /  1.8 °C 30.1in /  1018.6hPa SE 2mph /  3.2km/h 4mph /  6.4km/h 53% 0in /  0.0mm 877 W/m2
11:51 52.2 °F /  11.2 °C 36 °F /  2.2 °C 30.1in /  1018.3hPa NE 6mph /  9.7km/h 9mph /  14.5km/h 54% 0in /  0.0mm 928 W/m2
11:56 52.2 °F /  11.2 °C 35.6 °F /  2 °C 30.1in /  1018.6hPa ENE 0.9mph /  1.4km/h 3mph /  4.8km/h 53% 0in /  0.0mm 269 W/m2
12:01 52 °F /  11.1 °C 34.9 °F /  1.6 °C 30.1in /  1018.3hPa North 2.9mph /  4.7km/h 4mph /  6.4km/h 52% 0in /  0.0mm 854 W/m2
12:06 51.6 °F /  10.9 °C 35.1 °F /  1.7 °C 30.1in /  1018.3hPa NE 2.9mph /  4.7km/h 3mph /  4.8km/h 53% 0in /  0.0mm 833 W/m2
12:11 52 °F /  11.1 °C 36.9 °F /  2.7 °C 30.1in /  1018.3hPa East 4.9mph /  7.9km/h 5mph /  8km/h 56% 0in /  0.0mm 838 W/m2
12:16 52.5 °F /  11.4 °C 36.3 °F /  2.4 °C 30.1in /  1018.3hPa East 4mph /  6.4km/h 4mph /  6.4km/h 54% 0in /  0.0mm 861 W/m2
12:21 52.7 °F /  11.5 °C 35.1 °F /  1.7 °C 30.1in /  1018.0hPa Calm   6mph /  9.7km/h 51% 0in /  0.0mm 856 W/m2
12:26 52.5 °F /  11.4 °C 36.3 °F /  2.4 °C 30.1in /  1018.0hPa ENE 2mph /  3.2km/h 6mph /  9.7km/h 54% 0in /  0.0mm 863 W/m2
12:31 52.9 °F /  11.6 °C 37.2 °F /  2.9 °C 30.1in /  1018.0hPa ESE 2mph /  3.2km/h 5mph /  8km/h 55% 0in /  0.0mm 846 W/m2
12:36 52.9 °F /  11.6 °C 36.1 °F /  2.3 °C 30.1in /  1018.0hPa East 4mph /  6.4km/h 5mph /  8km/h 53% 0in /  0.0mm 891 W/m2
12:41 52.7 °F /  11.5 °C 35.6 °F /  2 °C 30.1in /  1018.0hPa ESE 2mph /  3.2km/h 2mph /  3.2km/h 52% 0in /  0.0mm 272 W/m2
12:46 52.7 °F /  11.5 °C 36.5 °F /  2.5 °C 30.1in /  1017.6hPa West 2mph /  3.2km/h 4mph /  6.4km/h 54% 0in /  0.0mm 863 W/m2
12:51 53.1 °F /  11.7 °C 36.3 °F /  2.4 °C 30.1in /  1017.6hPa ENE 4.9mph /  7.9km/h 8mph /  12.9km/h 53% 0in /  0.0mm 714 W/m2
12:56 53.1 °F /  11.7 °C 36 °F /  2.2 °C 30.1in /  1017.6hPa East 8.1mph /  13km/h 8mph /  12.9km/h 52% 0in /  0.0mm 846 W/m2
13:01 53.2 °F /  11.8 °C 35.1 °F /  1.7 °C 30.1in /  1017.6hPa NE 2mph /  3.2km/h 3mph /  4.8km/h 50% 0in /  0.0mm 858 W/m2
13:06 53.2 °F /  11.8 °C 35.6 °F /  2 °C 30in /  1017.3hPa NW 2mph /  3.2km/h 5mph /  8km/h 51% 0in /  0.0mm 830 W/m2
13:11 53.6 °F /  12 °C 37.4 °F /  3 °C 30in /  1017.3hPa ESE 4mph /  6.4km/h 5mph /  8km/h 54% 0in /  0.0mm 840 W/m2
13:16 54 °F /  12.2 °C 36.7 °F /  2.6 °C 30in /  1017.3hPa ENE 2.9mph /  4.7km/h 4mph /  6.4km/h 52% 0in /  0.0mm 844 W/m2
13:21 54.1 °F /  12.3 °C 36.3 °F /  2.4 °C 30in /  1017.3hPa ENE 2.9mph /  4.7km/h 3mph /  4.8km/h 51% 0in /  0.0mm 814 W/m2
13:27 54.5 °F /  12.5 °C 36.3 °F /  2.4 °C 30in /  1017.3hPa Calm   3mph /  4.8km/h 50% 0in /  0.0mm 782 W/m2
13:32 54.7 °F /  12.6 °C 36.3 °F /  2.4 °C 30in /  1017.3hPa SE 4mph /  6.4km/h 4mph /  6.4km/h 50% 0in /  0.0mm 802 W/m2
13:37 54.5 °F /  12.5 °C 36.3 °F /  2.4 °C 30in /  1017.3hPa North 2.9mph /  4.7km/h 3mph /  4.8km/h 50% 0in /  0.0mm 828 W/m2
13:42 54.7 °F /  12.6 °C 36.3 °F /  2.4 °C 30in /  1017.3hPa ENE 2.9mph /  4.7km/h 8mph /  12.9km/h 50% 0in /  0.0mm 821 W/m2
13:47 54.3 °F /  12.4 °C 36.5 °F /  2.5 °C 30in /  1016.9hPa East 0.9mph /  1.4km/h 3mph /  4.8km/h 51% 0in /  0.0mm 860 W/m2
13:52 54.3 °F /  12.4 °C 37 °F /  2.8 °C 30in /  1016.9hPa SE 2.9mph /  4.7km/h 6mph /  9.7km/h 52% 0in /  0.0mm 886 W/m2
13:57 54.5 °F /  12.5 °C 36.7 °F /  2.6 °C 30in /  1016.9hPa ENE 2.9mph /  4.7km/h 6mph /  9.7km/h 51% 0in /  0.0mm 879 W/m2
14:02 54.5 °F /  12.5 °C 35.8 °F /  2.1 °C 30in /  1016.9hPa ESE 2mph /  3.2km/h 4mph /  6.4km/h 49% 0in /  0.0mm 838 W/m2
14:07 54.7 °F /  12.6 °C 37.9 °F /  3.3 °C 30in /  1016.6hPa Calm   6mph /  9.7km/h 53% 0in /  0.0mm 872 W/m2
14:12 55 °F /  12.8 °C 36.7 °F /  2.6 °C 30in /  1016.6hPa NNE 4mph /  6.4km/h 5mph /  8km/h 50% 0in /  0.0mm 766 W/m2
14:17 55.2 °F /  12.9 °C 36.9 °F /  2.7 °C 30in /  1016.6hPa NE 2mph /  3.2km/h 3mph /  4.8km/h 50% 0in /  0.0mm 898 W/m2
14:22 55.2 °F /  12.9 °C 36.3 °F /  2.4 °C 30in /  1016.6hPa East 2.9mph /  4.7km/h 4mph /  6.4km/h 49% 0in /  0.0mm 826 W/m2
14:27 55.4 °F /  13 °C 35.4 °F /  1.9 °C 30in /  1016.6hPa North 2.9mph /  4.7km/h 8mph /  12.9km/h 47% 0in /  0.0mm 856 W/m2
14:32 55.4 °F /  13 °C 36 °F /  2.2 °C 30in /  1016.6hPa WNW 2mph /  3.2km/h 4mph /  6.4km/h 48% 0in /  0.0mm 566 W/m2
14:37 55 °F /  12.8 °C 35.8 °F /  2.1 °C 30in /  1016.6hPa East 4mph /  6.4km/h 4mph /  6.4km/h 48% 0in /  0.0mm 684 W/m2
14:42 55 °F /  12.8 °C 35.2 °F /  1.8 °C 30in /  1016.6hPa NE 2mph /  3.2km/h 3mph /  4.8km/h 47% 0in /  0.0mm 821 W/m2
14:47 55.6 °F /  13.1 °C 36.1 °F /  2.3 °C 30in /  1016.3hPa WNW 2mph /  3.2km/h 4mph /  6.4km/h 48% 0in /  0.0mm 805 W/m2
14:52 55 °F /  12.8 °C 35.8 °F /  2.1 °C 30in /  1016.6hPa Calm   3mph /  4.8km/h 48% 0in /  0.0mm 800 W/m2
14:57 55 °F /  12.8 °C 36.1 °F /  2.3 °C 30in /  1016.6hPa NNW 2.9mph /  4.7km/h 6mph /  9.7km/h 49% 0in /  0.0mm 754 W/m2
15:02 55.6 °F /  13.1 °C 36.7 °F /  2.6 °C 30in /  1016.6hPa ENE 0.9mph /  1.4km/h 2mph /  3.2km/h 49% 0in /  0.0mm 786 W/m2
15:07 55.9 °F /  13.3 °C 36.5 °F /  2.5 °C 30in /  1016.6hPa ESE 2mph /  3.2km/h 8mph /  12.9km/h 48% 0in /  0.0mm 742 W/m2
15:12 56.5 °F /  13.6 °C 38.1 °F /  3.4 °C 30in /  1016.3hPa ENE 2.9mph /  4.7km/h 3mph /  4.8km/h 50% 0in /  0.0mm 747 W/m2
15:18 56.5 °F /  13.6 °C 37 °F /  2.8 °C 30in /  1016.3hPa NNW 2mph /  3.2km/h 2mph /  3.2km/h 48% 0in /  0.0mm 636 W/m2
15:23 56.1 °F /  13.4 °C 37.2 °F /  2.9 °C 30in /  1016.3hPa North 0.9mph /  1.4km/h 2mph /  3.2km/h 49% 0in /  0.0mm 601 W/m2
15:28 56.1 °F /  13.4 °C 36.1 °F /  2.3 °C 30in /  1016.3hPa North 0.9mph /  1.4km/h 4mph /  6.4km/h 47% 0in /  0.0mm 446 W/m2
15:33 55.8 °F /  13.2 °C 36.3 °F /  2.4 °C 30in /  1015.9hPa East 2.9mph /  4.7km/h 4mph /  6.4km/h 48% 0in /  0.0mm 587 W/m2
15:38 55.8 °F /  13.2 °C 37.9 °F /  3.3 °C 30in /  1015.9hPa NNW 0.9mph /  1.4km/h 2mph /  3.2km/h 51% 0in /  0.0mm 508 W/m2
15:43 55.9 °F /  13.3 °C 37 °F /  2.8 °C 30in /  1015.9hPa NNE 6mph /  9.7km/h 6mph /  9.7km/h 49% 0in /  0.0mm 557 W/m2
15:48 55.8 °F /  13.2 °C 36.3 °F /  2.4 °C 30in /  1015.9hPa NNW 4mph /  6.4km/h 8mph /  12.9km/h 48% 0in /  0.0mm 452 W/m2
15:53 55.8 °F /  13.2 °C 36.9 °F /  2.7 °C 30in /  1015.9hPa ENE 4.9mph /  7.9km/h 7mph /  11.3km/h 49% 0in /  0.0mm 392 W/m2
15:58 55.8 °F /  13.2 °C 36.9 °F /  2.7 °C 30in /  1015.9hPa ENE 2mph /  3.2km/h 3mph /  4.8km/h 49% 0in /  0.0mm 469 W/m2
16:04 55.9 °F /  13.3 °C 37.6 °F /  3.1 °C 30in /  1015.9hPa NNW 2.9mph /  4.7km/h 6mph /  9.7km/h 50% 0in /  0.0mm 348 W/m2
16:09 55.9 °F /  13.3 °C 36.5 °F /  2.5 °C 30in /  1015.9hPa WSW 0.9mph /  1.4km/h 3mph /  4.8km/h 48% 0in /  0.0mm 599 W/m2
16:14 56.1 °F /  13.4 °C 36.1 °F /  2.3 °C 30in /  1015.6hPa ESE 2mph /  3.2km/h 6mph /  9.7km/h 47% 0in /  0.0mm 362 W/m2
16:19 55.9 °F /  13.3 °C 36.5 °F /  2.5 °C 30in /  1015.6hPa Calm   3mph /  4.8km/h 48% 0in /  0.0mm 311 W/m2
16:24 55.9 °F /  13.3 °C 37 °F /  2.8 °C 30in /  1015.6hPa NNW 2.9mph /  4.7km/h 4mph /  6.4km/h 49% 0in /  0.0mm 308 W/m2
16:29 55.9 °F /  13.3 °C 36.5 °F /  2.5 °C 30in /  1015.2hPa NNW 2.9mph /  4.7km/h 5mph /  8km/h 48% 0in /  0.0mm 295 W/m2
16:34 55.9 °F /  13.3 °C 36.5 °F /  2.5 °C 30in /  1015.2hPa East 2.9mph /  4.7km/h 8mph /  12.9km/h 48% 0in /  0.0mm 299 W/m2
16:39 55.8 °F /  13.2 °C 36.9 °F /  2.7 °C 30in /  1015.2hPa NE 2mph /  3.2km/h 4mph /  6.4km/h 49% 0in /  0.0mm 297 W/m2
16:44 55.6 °F /  13.1 °C 36.1 °F /  2.3 °C 30in /  1015.2hPa NW 0.9mph /  1.4km/h 7mph /  11.3km/h 48% 0in /  0.0mm 285 W/m2
16:49 55.6 °F /  13.1 °C 36.1 °F /  2.3 °C 30in /  1015.2hPa ENE 0.9mph /  1.4km/h 1mph /  1.6km/h 48% 0in /  0.0mm 274 W/m2
16:54 55.6 °F /  13.1 °C 37.2 °F /  2.9 °C 30in /  1015.2hPa East 0.9mph /  1.4km/h 4mph /  6.4km/h 50% 0in /  0.0mm 276 W/m2
16:59 55.6 °F /  13.1 °C 36.7 °F /  2.6 °C 30in /  1015.2hPa ENE 0.9mph /  1.4km/h 4mph /  6.4km/h 49% 0in /  0.0mm 279 W/m2
17:04 55.6 °F /  13.1 °C 37.2 °F /  2.9 °C 30in /  1015.2hPa East 2mph /  3.2km/h 4mph /  6.4km/h 50% 0in /  0.0mm 341 W/m2
17:09 55.6 °F /  13.1 °C 38.7 °F /  3.7 °C 30in /  1015.2hPa ENE 2mph /  3.2km/h 2mph /  3.2km/h 53% 0in /  0.0mm 369 W/m2
17:14 55.9 °F /  13.3 °C 38.1 °F /  3.4 °C 30in /  1015.2hPa NNW 2mph /  3.2km/h 3mph /  4.8km/h 51% 0in /  0.0mm 397 W/m2
17:19 56.1 °F /  13.4 °C 36.7 °F /  2.6 °C 30in /  1015.2hPa SSE 0.9mph /  1.4km/h 7mph /  11.3km/h 48% 0in /  0.0mm 336 W/m2
17:24 56.1 °F /  13.4 °C 38.3 °F /  3.5 °C 30in /  1015.2hPa East 0.9mph /  1.4km/h 2mph /  3.2km/h 51% 0in /  0.0mm 548 W/m2
17:29 56.5 °F /  13.6 °C 36.5 °F /  2.5 °C 30in /  1014.9hPa NE 2mph /  3.2km/h 6mph /  9.7km/h 47% 0in /  0.0mm 596 W/m2
17:34 57 °F /  13.9 °C 39 °F /  3.9 °C 30in /  1014.9hPa East 2mph /  3.2km/h 4mph /  6.4km/h 51% 0in /  0.0mm 545 W/m2
17:39 57.2 °F /  14 °C 37.2 °F /  2.9 °C 30in /  1014.9hPa Calm   3mph /  4.8km/h 47% 0in /  0.0mm 524 W/m2
17:44 57.2 °F /  14 °C 36.7 °F /  2.6 °C 30in /  1014.9hPa ENE 2mph /  3.2km/h 4mph /  6.4km/h 46% 0in /  0.0mm 459 W/m2
17:49 57.4 °F /  14.1 °C 37.4 °F /  3 °C 30in /  1014.9hPa NNW 0.9mph /  1.4km/h 3mph /  4.8km/h 47% 0in /  0.0mm 353 W/m2
17:54 57.6 °F /  14.2 °C 37.9 °F /  3.3 °C 30in /  1014.6hPa NW 4mph /  6.4km/h 4mph /  6.4km/h 48% 0in /  0.0mm 381 W/m2
17:59 57.6 °F /  14.2 °C 36.9 °F /  2.7 °C 30in /  1014.6hPa East 2.9mph /  4.7km/h 5mph /  8km/h 46% 0in /  0.0mm 246 W/m2
18:04 57.4 °F /  14.1 °C 36.7 °F /  2.6 °C 30in /  1014.6hPa NNW 6mph /  9.7km/h 8mph /  12.9km/h 46% 0in /  0.0mm 190 W/m2
18:09 56.8 °F /  13.8 °C 36.9 °F /  2.7 °C 30in /  1014.6hPa West 2mph /  3.2km/h 3mph /  4.8km/h 47% 0in /  0.0mm 195 W/m2
18:14 56.5 °F /  13.6 °C 36 °F /  2.2 °C 30in /  1014.6hPa ENE 2mph /  3.2km/h 4mph /  6.4km/h 46% 0in /  0.0mm 181 W/m2
18:19 55.9 °F /  13.3 °C 36.5 °F /  2.5 °C 30in /  1014.6hPa Calm   4mph /  6.4km/h 48% 0in /  0.0mm 183 W/m2
18:24 55.9 °F /  13.3 °C 36 °F /  2.2 °C 30in /  1014.2hPa Calm   3mph /  4.8km/h 47% 0in /  0.0mm 188 W/m2
18:29 55.8 °F /  13.2 °C 34.7 °F /  1.5 °C 30in /  1014.2hPa Calm   4mph /  6.4km/h 45% 0in /  0.0mm 207 W/m2
18:34 55.6 °F /  13.1 °C 35.1 °F /  1.7 °C 30in /  1014.2hPa North 0.9mph /  1.4km/h 2mph /  3.2km/h 46% 0in /  0.0mm 183 W/m2
18:39 55.6 °F /  13.1 °C 35.1 °F /  1.7 °C 30in /  1014.2hPa NNW 0.9mph /  1.4km/h 3mph /  4.8km/h 46% 0in /  0.0mm 181 W/m2
18:44 55.6 °F /  13.1 °C 36.1 °F /  2.3 °C 30in /  1014.2hPa NNE 0.9mph /  1.4km/h 4mph /  6.4km/h 48% 0in /  0.0mm 162 W/m2
18:49 55.6 °F /  13.1 °C 36.1 °F /  2.3 °C 30in /  1014.2hPa ESE 0.9mph /  1.4km/h 7mph /  11.3km/h 48% 0in /  0.0mm 162 W/m2
18:54 55.6 °F /  13.1 °C 35.6 °F /  2 °C 30in /  1014.2hPa SE 2.9mph /  4.7km/h 4mph /  6.4km/h 47% 0in /  0.0mm 195 W/m2
18:59 55.6 °F /  13.1 °C 35.6 °F /  2 °C 30in /  1014.2hPa ESE 0.9mph /  1.4km/h 4mph /  6.4km/h 47% 0in /  0.0mm 172 W/m2
19:04 55.6 °F /  13.1 °C 35.1 °F /  1.7 °C 29.9in /  1013.9hPa ENE 4mph /  6.4km/h 4mph /  6.4km/h 46% 0in /  0.0mm 156 W/m2
19:09 55.4 °F /  13 °C 36.5 °F /  2.5 °C 29.9in /  1013.9hPa East 2mph /  3.2km/h 3mph /  4.8km/h 49% 0in /  0.0mm 139 W/m2
19:14 55.2 °F /  12.9 °C 34.9 °F /  1.6 °C 29.9in /  1013.9hPa NE 0.9mph /  1.4km/h 6mph /  9.7km/h 46% 0in /  0.0mm 121 W/m2
19:19 55 °F /  12.8 °C 34.7 °F /  1.5 °C 29.9in /  1013.9hPa NE 0.9mph /  1.4km/h 2mph /  3.2km/h 46% 0in /  0.0mm 114 W/m2
19:24 54.9 °F /  12.7 °C 34.5 °F /  1.4 °C 29.9in /  1013.9hPa ESE 2.9mph /  4.7km/h 6mph /  9.7km/h 46% 0in /  0.0mm 120 W/m2
19:29 54.9 °F /  12.7 °C 35.6 °F /  2 °C 29.9in /  1013.9hPa SE 0.9mph /  1.4km/h 2mph /  3.2km/h 48% 0in /  0.0mm 97 W/m2
19:34 54.7 °F /  12.6 °C 35.4 °F /  1.9 °C 29.9in /  1013.9hPa ESE 0.9mph /  1.4km/h 3mph /  4.8km/h 48% 0in /  0.0mm 88 W/m2
19:39 54.7 °F /  12.6 °C 35.4 °F /  1.9 °C 29.9in /  1013.9hPa Calm   2mph /  3.2km/h 48% 0in /  0.0mm 83 W/m2
19:44 54.7 °F /  12.6 °C 37.4 °F /  3 °C 29.9in /  1013.5hPa SSE 0.9mph /  1.4km/h 2mph /  3.2km/h 52% 0in /  0.0mm 77 W/m2
19:49 54.3 °F /  12.4 °C 36.1 °F /  2.3 °C 29.9in /  1013.5hPa NE 2mph /  3.2km/h 5mph /  8km/h 50% 0in /  0.0mm 69 W/m2
19:54 54.1 °F /  12.3 °C 36.3 °F /  2.4 °C 29.9in /  1013.5hPa NE 0.9mph /  1.4km/h 1mph /  1.6km/h 51% 0in /  0.0mm 62 W/m2
19:59 54 °F /  12.2 °C 36.3 °F /  2.4 °C 29.9in /  1013.5hPa East 2mph /  3.2km/h 5mph /  8km/h 51% 0in /  0.0mm 58 W/m2
20:04 54 °F /  12.2 °C 36.3 °F /  2.4 °C 29.9in /  1013.5hPa SE 0.9mph /  1.4km/h 1mph /  1.6km/h 51% 0in /  0.0mm 53 W/m2
20:09 53.8 °F /  12.1 °C 37.6 °F /  3.1 °C 29.9in /  1013.5hPa Calm   1mph /  1.6km/h 54% 0in /  0.0mm 46 W/m2
20:14 53.4 °F /  11.9 °C 36.7 °F /  2.6 °C 29.9in /  1013.5hPa ESE 0.9mph /  1.4km/h 6mph /  9.7km/h 53% 0in /  0.0mm 40 W/m2
20:19 53.2 °F /  11.8 °C 35.6 °F /  2 °C 29.9in /  1013.5hPa East 0.9mph /  1.4km/h 3mph /  4.8km/h 51% 0in /  0.0mm 35 W/m2
20:24 53.1 °F /  11.7 °C 39.2 °F /  4 °C 29.9in /  1013.5hPa East 0.9mph /  1.4km/h 6mph /  9.7km/h 59% 0in /  0.0mm 32 W/m2
20:29 52.7 °F /  11.5 °C 37 °F /  2.8 °C 29.9in /  1013.5hPa ESE 2mph /  3.2km/h 2mph /  3.2km/h 55% 0in /  0.0mm 28 W/m2
20:34 52.5 °F /  11.4 °C 38.1 °F /  3.4 °C 29.9in /  1013.5hPa ESE 0.9mph /  1.4km/h 1mph /  1.6km/h 58% 0in /  0.0mm 28 W/m2
20:39 52.3 °F /  11.3 °C 39.7 °F /  4.3 °C 29.9in /  1013.5hPa Calm   1mph /  1.6km/h 62% 0in /  0.0mm 25 W/m2
20:44 52 °F /  11.1 °C 38.5 °F /  3.6 °C 29.9in /  1013.5hPa ESE 2mph /  3.2km/h 2mph /  3.2km/h 60% 0in /  0.0mm 19 W/m2
20:49 51.6 °F /  10.9 °C 39 °F /  3.9 °C 29.9in /  1013.5hPa ESE 0.9mph /  1.4km/h 1mph /  1.6km/h 62% 0in /  0.0mm 12 W/m2
20:54 51.4 °F /  10.8 °C 39.7 °F /  4.3 °C 29.9in /  1013.5hPa Calm     64% 0in /  0.0mm 9 W/m2
20:59 51.1 °F /  10.6 °C 39.7 °F /  4.3 °C 29.9in /  1013.2hPa Calm     65% 0in /  0.0mm 5 W/m2
21:04 50.7 °F /  10.4 °C 39.4 °F /  4.1 °C 29.9in /  1013.5hPa Calm     65% 0in /  0.0mm 0 W/m2
21:09 50.4 °F /  10.2 °C 39 °F /  3.9 °C 29.9in /  1013.5hPa Calm   1mph /  1.6km/h 65% 0in /  0.0mm 0 W/m2
21:14 50 °F /  10 °C 39 °F /  3.9 °C 29.9in /  1013.5hPa Calm   1mph /  1.6km/h 66% 0in /  0.0mm 0 W/m2
21:19 49.8 °F /  9.9 °C 39.7 °F /  4.3 °C 29.9in /  1013.5hPa Calm     68% 0in /  0.0mm 0 W/m2
21:24 49.5 °F /  9.7 °C 39.7 °F /  4.3 °C 29.9in /  1013.5hPa SE 0.9mph /  1.4km/h 2mph /  3.2km/h 69% 0in /  0.0mm 0 W/m2
21:29 49.1 °F /  9.5 °C 39.7 °F /  4.3 °C 29.9in /  1013.5hPa SE 0.9mph /  1.4km/h 1mph /  1.6km/h 70% 0in /  0.0mm 0 W/m2
21:34 48.7 °F /  9.3 °C 39.7 °F /  4.3 °C 29.9in /  1013.5hPa Calm     71% 0in /  0.0mm 0 W/m2
21:39 48.6 °F /  9.2 °C 39.6 °F /  4.2 °C 29.9in /  1013.5hPa Calm     71% 0in /  0.0mm 0 W/m2
21:45 48.2 °F /  9 °C 38.8 °F /  3.8 °C 29.9in /  1013.5hPa Calm     70% 0in /  0.0mm 0 W/m2
21:50 47.8 °F /  8.8 °C 39.2 °F /  4 °C 29.9in /  1013.5hPa Calm     72% 0in /  0.0mm 0 W/m2
21:55 47.7 °F /  8.7 °C 39 °F /  3.9 °C 29.9in /  1013.5hPa Calm     72% 0in /  0.0mm 0 W/m2
22:00 47.1 °F /  8.4 °C 38.5 °F /  3.6 °C 29.9in /  1013.5hPa Calm     72% 0in /  0.0mm 0 W/m2
22:05 46.8 °F /  8.2 °C 38.3 °F /  3.5 °C 29.9in /  1013.5hPa Calm     72% 0in /  0.0mm 0 W/m2
22:10 46.6 °F /  8.1 °C 38.5 °F /  3.6 °C 29.9in /  1013.5hPa Calm     73% 0in /  0.0mm 0 W/m2
22:15 46.2 °F /  7.9 °C 38.5 °F /  3.6 °C 29.9in /  1013.5hPa Calm     74% 0in /  0.0mm 0 W/m2
22:20 46 °F /  7.8 °C 38.3 °F /  3.5 °C 29.9in /  1013.5hPa Calm     74% 0in /  0.0mm 0 W/m2
22:25 46 °F /  7.8 °C 38.3 °F /  3.5 °C 29.9in /  1013.5hPa Calm   2mph /  3.2km/h 74% 0in /  0.0mm 0 W/m2
22:30 46 °F /  7.8 °C 38.3 °F /  3.5 °C 29.9in /  1013.5hPa Calm   1mph /  1.6km/h 74% 0in /  0.0mm 0 W/m2
22:35 45.9 °F /  7.7 °C 38.1 °F /  3.4 °C 29.9in /  1013.5hPa SE 0.9mph /  1.4km/h 1mph /  1.6km/h 74% 0in /  0.0mm 0 W/m2
22:40 45.9 °F /  7.7 °C 38.3 °F /  3.5 °C 29.9in /  1013.5hPa Calm   1mph /  1.6km/h 75% 0in /  0.0mm 0 W/m2
22:45 45.7 °F /  7.6 °C 38.5 °F /  3.6 °C 29.9in /  1013.5hPa Calm     76% 0in /  0.0mm 0 W/m2
22:50 45.3 °F /  7.4 °C 38.1 °F /  3.4 °C 29.9in /  1013.5hPa Calm   1mph /  1.6km/h 76% 0in /  0.0mm 0 W/m2
22:55 45.1 °F /  7.3 °C 37.9 °F /  3.3 °C 29.9in /  1013.5hPa Calm     76% 0in /  0.0mm 0 W/m2
23:00 45 °F /  7.2 °C 38.1 °F /  3.4 °C 29.9in /  1013.5hPa Calm     77% 0in /  0.0mm 0 W/m2
23:05 44.8 °F /  7.1 °C 37.9 °F /  3.3 °C 29.9in /  1013.5hPa Calm     77% 0in /  0.0mm 0 W/m2
23:10 44.8 °F /  7.1 °C 37.9 °F /  3.3 °C 29.9in /  1013.5hPa Calm   1mph /  1.6km/h 77% 0in /  0.0mm 0 W/m2
23:15 44.8 °F /  7.1 °C 37.9 °F /  3.3 °C 29.9in /  1013.2hPa Calm     77% 0in /  0.0mm 0 W/m2
23:20 44.4 °F /  6.9 °C 37.9 °F /  3.3 °C 29.9in /  1013.2hPa Calm   1mph /  1.6km/h 78% 0in /  0.0mm 0 W/m2
23:25 44.4 °F /  6.9 °C 37.9 °F /  3.3 °C 29.9in /  1013.2hPa Calm     78% 0in /  0.0mm 0 W/m2
23:30 44.2 °F /  6.8 °C 38.1 °F /  3.4 °C 29.9in /  1013.2hPa Calm   1mph /  1.6km/h 79% 0in /  0.0mm 0 W/m2
23:35 44.2 °F /  6.8 °C 38.1 °F /  3.4 °C 29.9in /  1013.5hPa Calm     79% 0in /  0.0mm 0 W/m2
23:40 44.1 °F /  6.7 °C 38.3 °F /  3.5 °C 29.9in /  1013.5hPa Calm     80% 0in /  0.0mm 0 W/m2
23:45 43.9 °F /  6.6 °C 38.1 °F /  3.4 °C 29.9in /  1013.5hPa Calm     80% 0in /  0.0mm 0 W/m2
23:50 43.5 °F /  6.4 °C 37.8 °F /  3.2 °C 29.9in /  1013.5hPa Calm     80% 0in /  0.0mm 0 W/m2
23:55 43.3 °F /  6.3 °C 37.6 °F /  3.1 °C 29.9in /  1013.2hPa Calm     80% 0in /  0.0mm 0 W/m2
Juneau County Weather
Compliments of Weather Underground - 2 mb